Time;durP1;ratioP1;P1;durP2;ratioP2;P2;SDS_P1;SDS_P2;PMS_P1;PMS_P2;Temp;Humidity;BMP_temperature;BMP_pressure;BME280_temperature;BME280_humidity;BME280_pressure;Samples;Min_cycle;Max_cycle;Signal;HPM_P1;HPM_P2
2022/07/21 00:01:51;;;;;;;16.83;11.77;;;;;;;;;;4990310;28;96084;-75
2022/07/21 00:04:18;;;;;;;15.15;11.75;;;;;;;;;;4990660;28;97326;-75
2022/07/21 00:06:45;;;;;;;16.55;12.95;;;;;;;;;;5002971;28;96699;-75
2022/07/21 00:09:12;;;;;;;18.05;11.45;;;;;;;;;;4992884;28;97674;-75
2022/07/21 00:11:39;;;;;;;17.08;12.18;;;;;;;;;;4991526;28;97801;-75
2022/07/21 00:14:07;;;;;;;15.25;10.35;;;;;;;;;;4992554;28;95338;-75
2022/07/21 00:16:34;;;;;;;13.70;9.15;;;;;;;;;;5000138;28;97766;-75
2022/07/21 00:19:01;;;;;;;15.13;9.52;;;;;;;;;;4995073;28;95281;-75
2022/07/21 00:21:27;;;;;;;14.25;8.50;;;;;;;;;;4993172;28;96632;-75
2022/07/21 00:23:54;;;;;;;13.25;8.40;;;;;;;;;;5003110;28;97731;-75
2022/07/21 00:26:20;;;;;;;10.88;7.88;;;;;;;;;;4992718;28;97031;-75
2022/07/21 00:28:47;;;;;;;9.82;7.50;;;;;;;;;;4993008;28;97136;-75
2022/07/21 00:31:13;;;;;;;10.48;7.80;;;;;;;;;;4992950;28;97770;-75
2022/07/21 00:33:40;;;;;;;12.13;7.22;;;;;;;;;;4992426;28;95379;-75
2022/07/21 00:36:07;;;;;;;10.88;7.40;;;;;;;;;;4992690;28;97476;-75
2022/07/21 00:38:33;;;;;;;14.25;7.53;;;;;;;;;;4995653;28;98022;-75
2022/07/21 00:41:00;;;;;;;14.25;7.90;;;;;;;;;;4992452;28;97283;-75
2022/07/21 00:43:26;;;;;;;12.30;8.50;;;;;;;;;;4992646;28;97984;-75
2022/07/21 00:45:53;;;;;;;11.07;7.35;;;;;;;;;;4992336;28;95319;-75
2022/07/21 00:48:20;;;;;;;11.80;7.95;;;;;;;;;;4992460;28;97083;-74
2022/07/21 00:50:46;;;;;;;12.77;8.05;;;;;;;;;;4992635;28;97915;-75
2022/07/21 00:53:13;;;;;;;10.25;7.47;;;;;;;;;;4993970;28;95766;-75
2022/07/21 00:55:42;;;;;;;12.52;8.07;;;;;;;;;;4992299;28;97410;-74
2022/07/21 00:58:08;;;;;;;9.60;7.40;;;;;;;;;;4991176;28;96980;-74
2022/07/21 01:00:35;;;;;;;9.70;7.15;;;;;;;;;;4994589;28;96198;-74
2022/07/21 01:03:04;;;;;;;10.13;7.38;;;;;;;;;;4992493;28;97224;-75
2022/07/21 01:05:31;;;;;;;13.30;7.43;;;;;;;;;;4992429;28;95283;-75
2022/07/21 01:08:02;;;;;;;12.50;8.18;;;;;;;;;;5023415;27;97490;-74
2022/07/21 01:10:29;;;;;;;10.00;7.82;;;;;;;;;;4992185;28;96895;-74
2022/07/21 01:12:56;;;;;;;12.05;7.53;;;;;;;;;;4991357;28;95401;-75
2022/07/21 01:15:23;;;;;;;9.57;7.45;;;;;;;;;;4991855;28;97288;-75
2022/07/21 01:17:50;;;;;;;10.30;7.80;;;;;;;;;;4991133;28;97935;-74
2022/07/21 01:20:18;;;;;;;13.45;7.55;;;;;;;;;;4994793;28;95255;-74
2022/07/21 01:22:46;;;;;;;12.23;8.35;;;;;;;;;;4991684;28;97720;-74
2022/07/21 01:25:12;;;;;;;9.50;7.50;;;;;;;;;;4992359;28;97268;-74
2022/07/21 01:27:39;;;;;;;12.57;8.18;;;;;;;;;;4990086;28;97252;-74
2022/07/21 01:30:09;;;;;;;11.40;8.57;;;;;;;;;;4991938;28;98014;-74
2022/07/21 01:32:37;;;;;;;14.18;7.80;;;;;;;;;;4991576;28;95439;-74
2022/07/21 01:35:06;;;;;;;27.08;8.63;;;;;;;;;;4991619;28;97355;-74
2022/07/21 01:37:34;;;;;;;12.57;7.85;;;;;;;;;;5024439;27;97865;-74
2022/07/21 01:42:45;;;;;;;10.55;7.82;;;;;;;;;;4995510;28;96807;-75
2022/07/21 01:45:11;;;;;;;11.00;7.95;;;;;;;;;;4991732;28;95413;-74
2022/07/21 01:47:40;;;;;;;10.73;7.35;;;;;;;;;;4991943;28;96819;-74
2022/07/21 01:50:07;;;;;;;15.48;8.45;;;;;;;;;;5010243;27;97790;-75
2022/07/21 01:52:33;;;;;;;13.80;8.82;;;;;;;;;;4994854;28;95293;-75
2022/07/21 01:55:00;;;;;;;10.75;8.27;;;;;;;;;;4995800;28;96802;-74
2022/07/21 01:57:26;;;;;;;11.77;8.32;;;;;;;;;;5025798;27;97002;-74
2022/07/21 01:59:53;;;;;;;15.82;9.32;;;;;;;;;;4995604;28;95273;-74
2022/07/21 02:02:21;;;;;;;13.35;9.55;;;;;;;;;;4994741;28;97620;-74
2022/07/21 02:04:48;;;;;;;15.77;10.52;;;;;;;;;;4997722;28;97777;-74
2022/07/21 02:07:14;;;;;;;14.48;10.32;;;;;;;;;;4998281;28;96932;-75
2022/07/21 02:09:41;;;;;;;14.82;11.07;;;;;;;;;;5013616;28;97220;-74
2022/07/21 02:12:08;;;;;;;17.52;10.60;;;;;;;;;;5013526;28;95347;-75
2022/07/21 02:14:34;;;;;;;15.85;10.32;;;;;;;;;;5014476;28;97037;-75
2022/07/21 02:17:01;;;;;;;16.42;11.27;;;;;;;;;;5009129;28;97304;-75
2022/07/21 02:19:27;;;;;;;15.05;10.75;;;;;;;;;;4992982;28;96193;-74
2022/07/21 02:21:54;;;;;;;15.70;11.73;;;;;;;;;;4993915;28;97137;-74
2022/07/21 02:24:20;;;;;;;16.05;11.50;;;;;;;;;;4993374;28;98065;-74
2022/07/21 02:26:47;;;;;;;15.55;11.88;;;;;;;;;;5001791;28;95372;-74
2022/07/21 02:29:14;;;;;;;19.27;12.43;;;;;;;;;;4994121;28;97986;-74
2022/07/21 02:31:40;;;;;;;14.95;10.63;;;;;;;;;;4993371;28;95789;-75
2022/07/21 02:34:07;;;;;;;17.77;12.43;;;;;;;;;;4994223;28;96872;-74
2022/07/21 02:36:34;;;;;;;19.65;12.77;;;;;;;;;;4997953;28;97952;-75
2022/07/21 02:39:00;;;;;;;16.15;11.45;;;;;;;;;;4993683;28;95417;-74
2022/07/21 02:41:27;;;;;;;17.35;12.52;;;;;;;;;;4992551;28;97478;-74
2022/07/21 02:43:53;;;;;;;18.38;13.02;;;;;;;;;;4993835;28;97324;-74
2022/07/21 02:46:20;;;;;;;22.20;12.98;;;;;;;;;;4993646;28;96035;-74
2022/07/21 02:48:46;;;;;;;19.58;12.43;;;;;;;;;;4996847;28;97551;-74
2022/07/21 02:51:13;;;;;;;16.42;12.57;;;;;;;;;;5012519;28;95519;-74
2022/07/21 02:53:39;;;;;;;23.00;13.07;;;;;;;;;;5013538;28;97431;-74
2022/07/21 02:56:06;;;;;;;17.08;12.18;;;;;;;;;;5011037;28;96736;-75
2022/07/21 02:58:32;;;;;;;17.63;12.95;;;;;;;;;;4992686;28;95509;-75
2022/07/21 03:00:59;;;;;;;22.92;14.05;;;;;;;;;;4993355;28;96870;-75
2022/07/21 03:03:30;;;;;;;20.88;14.00;;;;;;;;;;4993190;28;97992;-75
2022/07/21 03:05:57;;;;;;;20.15;14.88;;;;;;;;;;4993270;28;95539;-75
2022/07/21 03:08:24;;;;;;;21.10;14.23;;;;;;;;;;4994451;28;97166;-74
2022/07/21 03:10:50;;;;;;;19.45;13.73;;;;;;;;;;4996600;28;97397;-74
2022/07/21 03:13:17;;;;;;;22.17;14.27;;;;;;;;;;4992739;28;96933;-75
2022/07/21 03:15:43;;;;;;;21.58;14.13;;;;;;;;;;4996141;28;97368;-74
2022/07/21 03:18:10;;;;;;;22.65;14.85;;;;;;;;;;4993220;28;95323;-75
2022/07/21 03:20:39;;;;;;;17.60;13.43;;;;;;;;;;4992904;28;96872;-75
2022/07/21 03:23:06;;;;;;;24.65;15.35;;;;;;;;;;4993259;28;97762;-75
2022/07/21 03:25:32;;;;;;;26.98;15.30;;;;;;;;;;4993452;28;95731;-74
2022/07/21 03:27:58;;;;;;;20.80;14.07;;;;;;;;;;4992155;28;97424;-74
2022/07/21 03:30:26;;;;;;;21.20;15.52;;;;;;;;;;4996140;28;97308;-74
2022/07/21 03:32:52;;;;;;;19.45;14.90;;;;;;;;;;4993399;28;96892;-74
2022/07/21 03:35:19;;;;;;;21.63;15.93;;;;;;;;;;4991513;28;97412;-74
2022/07/21 03:37:48;;;;;;;26.45;16.45;;;;;;;;;;4993655;28;95594;-74
2022/07/21 03:40:16;;;;;;;23.92;16.08;;;;;;;;;;4991864;28;97588;-75
2022/07/21 03:42:43;;;;;;;23.83;16.80;;;;;;;;;;4996196;28;97883;-74
2022/07/21 03:45:10;;;;;;;23.20;15.95;;;;;;;;;;5004870;28;95855;-74
2022/07/21 03:47:37;;;;;;;27.27;16.90;;;;;;;;;;4992152;28;95799;-74
2022/07/21 03:50:04;;;;;;;24.38;16.73;;;;;;;;;;5004098;28;97343;-75
2022/07/21 03:52:30;;;;;;;27.02;18.60;;;;;;;;;;5014185;28;95411;-74
2022/07/21 19:53:20;;;;;;;17.90;3.35;;;;;;;;;;5043968;27;95325;-74
2022/07/21 19:55:46;;;;;;;11.50;3.33;;;;;;;;;;5018991;27;96543;-72
2022/07/21 19:58:13;;;;;;;14.80;3.03;;;;;;;;;;5007924;28;95413;-73
2022/07/21 20:00:40;;;;;;;13.65;3.33;;;;;;;;;;5008379;28;96756;-73
2022/07/21 20:03:06;;;;;;;12.80;3.70;;;;;;;;;;5009731;28;97770;-73
2022/07/21 20:05:33;;;;;;;14.50;3.20;;;;;;;;;;5012080;27;96072;-73
2022/07/21 20:07:59;;;;;;;16.90;3.17;;;;;;;;;;5021468;28;96961;-73
2022/07/21 20:10:27;;;;;;;13.50;3.10;;;;;;;;;;5015320;28;97018;-74
2022/07/21 20:12:54;;;;;;;8.13;2.70;;;;;;;;;;5010934;28;95333;-73
2022/07/21 20:15:21;;;;;;;11.15;3.17;;;;;;;;;;5012422;28;97717;-73
2022/07/21 20:17:47;;;;;;;10.27;3.22;;;;;;;;;;5008965;28;95322;-72
2022/07/21 20:20:17;;;;;;;11.82;3.28;;;;;;;;;;5011123;28;96723;-72
2022/07/21 20:22:45;;;;;;;11.57;2.83;;;;;;;;;;5008568;28;99040;-73
2022/07/21 20:25:12;;;;;;;13.32;2.92;;;;;;;;;;5009395;28;96394;-73
2022/07/21 20:27:38;;;;;;;12.43;3.00;;;;;;;;;;5008063;28;96736;-74
2022/07/21 20:30:05;;;;;;;9.30;2.33;;;;;;;;;;5008140;28;96951;-73
2022/07/21 20:32:32;;;;;;;11.02;3.17;;;;;;;;;;5008711;28;95656;-73
2022/07/21 20:34:58;;;;;;;8.02;2.70;;;;;;;;;;5010456;28;96709;-74
2022/07/21 20:37:25;;;;;;;7.50;2.40;;;;;;;;;;5009369;28;95336;-73
2022/07/21 20:39:51;;;;;;;7.75;2.22;;;;;;;;;;5007785;28;97058;-73
2022/07/21 20:42:38;;;;;;;8.10;2.15;;;;;;;;;;5007456;28;99001;-73
2022/07/21 20:45:05;;;;;;;5.35;1.98;;;;;;;;;;5010020;28;96313;-73
2022/07/21 20:47:31;;;;;;;7.03;1.92;;;;;;;;;;5008280;28;97104;-72
2022/07/21 20:49:57;;;;;;;10.52;2.42;;;;;;;;;;5007592;28;97444;-73
2022/07/21 20:52:24;;;;;;;6.32;1.98;;;;;;;;;;5020933;28;95296;-73
2022/07/21 20:54:51;;;;;;;8.45;2.22;;;;;;;;;;5041475;27;96196;-72
2022/07/21 20:57:17;;;;;;;4.63;1.98;;;;;;;;;;5033409;27;97307;-73
2022/07/21 20:59:44;;;;;;;6.00;1.90;;;;;;;;;;5049030;27;96708;-73
2022/07/21 21:02:10;;;;;;;3.97;1.67;;;;;;;;;;5048186;27;97463;-73
2022/07/21 21:04:37;;;;;;;12.35;2.42;;;;;;;;;;5020528;27;95844;-73
2022/07/21 21:07:03;;;;;;;9.88;2.20;;;;;;;;;;5014541;28;95433;-74
2022/07/21 21:09:30;;;;;;;10.40;2.30;;;;;;;;;;5014509;28;97127;-72
2022/07/21 21:11:57;;;;;;;9.75;2.65;;;;;;;;;;4997638;28;95445;-73
2022/07/21 21:14:23;;;;;;;11.50;2.33;;;;;;;;;;5013427;28;96830;-75
2022/07/21 21:16:51;;;;;;;9.30;2.38;;;;;;;;;;5013681;28;97429;-74
2022/07/21 21:19:17;;;;;;;8.63;2.45;;;;;;;;;;5017846;28;95291;-74
2022/07/21 21:21:44;;;;;;;9.18;2.53;;;;;;;;;;5014030;28;97437;-75
2022/07/21 21:24:13;;;;;;;11.45;2.33;;;;;;;;;;5013824;28;95238;-74
2022/07/21 21:26:40;;;;;;;6.18;2.25;;;;;;;;;;5013911;28;97082;-75
2022/07/21 21:29:06;;;;;;;7.90;2.10;;;;;;;;;;4996242;28;97655;-73
2022/07/21 21:31:33;;;;;;;6.55;2.10;;;;;;;;;;5013732;28;95385;-74
2022/07/21 21:33:59;;;;;;;15.77;2.78;;;;;;;;;;5014553;28;96805;-73
2022/07/21 21:36:26;;;;;;;12.77;2.47;;;;;;;;;;5013674;28;97472;-74
2022/07/21 21:38:52;;;;;;;11.00;2.63;;;;;;;;;;5013658;28;95458;-75
2022/07/21 21:41:20;;;;;;;13.73;2.47;;;;;;;;;;5016217;28;96804;-73
2022/07/21 21:43:46;;;;;;;10.77;2.50;;;;;;;;;;5012407;28;96070;-74
2022/07/21 21:46:13;;;;;;;7.45;2.47;;;;;;;;;;5014828;28;96819;-73
2022/07/21 21:48:39;;;;;;;10.07;2.20;;;;;;;;;;5014028;28;96250;-73
2022/07/21 21:51:07;;;;;;;15.35;2.58;;;;;;;;;;5013768;28;95425;-73
2022/07/21 21:53:34;;;;;;;11.35;2.38;;;;;;;;;;5013124;28;97264;-74
2022/07/21 21:56:01;;;;;;;10.73;2.60;;;;;;;;;;4996310;28;97306;-74
2022/07/21 21:58:27;;;;;;;8.90;2.50;;;;;;;;;;5013799;28;95456;-73
2022/07/21 22:00:54;;;;;;;13.07;2.65;;;;;;;;;;5026086;28;97406;-72
2022/07/21 22:03:20;;;;;;;11.55;2.33;;;;;;;;;;5029027;28;96555;-72
2022/07/21 22:05:47;;;;;;;12.25;2.70;;;;;;;;;;5031471;27;96788;-72
2022/07/21 22:08:13;;;;;;;12.98;2.70;;;;;;;;;;5032911;28;97358;-72
2022/07/21 22:10:43;;;;;;;11.85;3.00;;;;;;;;;;5033571;28;95363;-73
2022/07/21 22:13:10;;;;;;;8.15;2.42;;;;;;;;;;5014313;28;96789;-73
2022/07/21 22:15:36;;;;;;;16.63;2.80;;;;;;;;;;5012418;28;97581;-73
2022/07/21 22:18:03;;;;;;;10.80;2.53;;;;;;;;;;5013836;28;95191;-73
2022/07/21 22:20:29;;;;;;;10.88;2.50;;;;;;;;;;5013634;28;96937;-73
2022/07/21 22:22:56;;;;;;;9.10;2.58;;;;;;;;;;5015945;28;97851;-73
2022/07/21 22:25:22;;;;;;;12.20;2.58;;;;;;;;;;5013428;28;96269;-73
2022/07/21 22:27:49;;;;;;;9.98;2.30;;;;;;;;;;5012208;28;97272;-73
2022/07/21 22:30:15;;;;;;;12.15;2.58;;;;;;;;;;5013850;28;95275;-73
2022/07/21 22:32:41;;;;;;;8.45;2.88;;;;;;;;;;5013631;28;96859;-73
2022/07/21 22:35:08;;;;;;;16.23;3.95;;;;;;;;;;5013282;28;97723;-72
2022/07/21 22:37:35;;;;;;;10.50;2.70;;;;;;;;;;5013500;28;95352;-73
2022/07/21 22:40:02;;;;;;;11.45;2.70;;;;;;;;;;5013314;28;96852;-73
2022/07/21 22:42:28;;;;;;;15.23;2.67;;;;;;;;;;5013070;28;97330;-72
2022/07/21 22:44:54;;;;;;;12.20;2.70;;;;;;;;;;5016056;28;95339;-73
2022/07/21 22:47:21;;;;;;;12.15;2.88;;;;;;;;;;5012226;28;97129;-73
2022/07/21 22:49:47;;;;;;;8.52;2.58;;;;;;;;;;5013698;28;95225;-73
2022/07/21 22:52:13;;;;;;;11.25;3.42;;;;;;;;;;5012605;28;96837;-73
2022/07/21 22:54:40;;;;;;;9.80;2.55;;;;;;;;;;5013063;28;98111;-72
2022/07/21 22:57:06;;;;;;;10.52;2.90;;;;;;;;;;5012729;28;95454;-73
2022/07/21 22:59:32;;;;;;;14.88;2.97;;;;;;;;;;5027436;28;96673;-73
2022/07/21 23:01:59;;;;;;;13.57;3.15;;;;;;;;;;5030582;28;97451;-72
2022/07/21 23:04:25;;;;;;;10.10;2.63;;;;;;;;;;5012809;28;95751;-72
2022/07/21 23:06:52;;;;;;;13.15;3.03;;;;;;;;;;4997888;28;96123;-73
2022/07/21 23:09:18;;;;;;;11.65;3.17;;;;;;;;;;5012791;28;95234;-72
2022/07/21 23:11:45;;;;;;;10.50;2.92;;;;;;;;;;5013221;28;97041;-73
2022/07/21 23:14:12;;;;;;;12.63;2.65;;;;;;;;;;5012359;28;97613;-73
2022/07/21 23:16:38;;;;;;;11.40;3.33;;;;;;;;;;5012282;28;95172;-73
2022/07/21 23:19:05;;;;;;;11.27;3.03;;;;;;;;;;5013447;28;96830;-72
2022/07/21 23:21:31;;;;;;;9.50;2.97;;;;;;;;;;4996798;28;97815;-73
2022/07/21 23:23:58;;;;;;;11.73;3.05;;;;;;;;;;5021659;28;95947;-73
2022/07/21 23:26:24;;;;;;;13.82;3.20;;;;;;;;;;5028245;28;97183;-73
2022/07/21 23:28:51;;;;;;;10.13;2.83;;;;;;;;;;5024460;28;97342;-72
2022/07/21 23:31:21;;;;;;;19.02;3.00;;;;;;;;;;5026543;28;96985;-72
2022/07/21 23:33:50;;;;;;;;;;;;;;;;;;5008307;28;97367;-73
2022/07/21 23:36:17;;;;;;;17.92;2.85;;;;;;;;;;5015430;28;116290;-73
2022/07/21 23:38:43;;;;;;;14.05;2.97;;;;;;;;;;5012632;28;97110;-73
2022/07/21 23:41:16;;;;;;;9.00;2.80;;;;;;;;;;5011747;28;96546;-74
2022/07/21 23:43:42;;;;;;;15.95;3.08;;;;;;;;;;5012258;28;95574;-73
2022/07/21 23:46:09;;;;;;;16.30;2.95;;;;;;;;;;5012929;28;96774;-73
2022/07/21 23:48:36;;;;;;;10.27;2.92;;;;;;;;;;5013146;27;97689;-73
2022/07/21 23:51:02;;;;;;;11.90;3.15;;;;;;;;;;5014790;28;95468;-74
2022/07/21 23:53:29;;;;;;;8.77;2.78;;;;;;;;;;5023910;28;97846;-73
2022/07/21 23:55:55;;;;;;;12.13;3.25;;;;;;;;;;5023035;28;95482;-73
2022/07/21 23:58:21;;;;;;;8.82;2.65;;;;;;;;;;5011474;28;97125;-73
